createdAt,value
2022-11-01T00:01:29.447Z,65.53
2022-11-01T00:04:31.123Z,65.50
2022-11-01T00:07:32.656Z,65.63
2022-11-01T00:10:34.173Z,65.55
2022-11-01T00:13:35.754Z,65.66
2022-11-01T00:16:37.254Z,65.63
2022-11-01T00:19:38.793Z,65.70
2022-11-01T00:22:40.343Z,65.68
2022-11-01T00:25:41.910Z,65.78
2022-11-01T00:28:43.720Z,65.61
2022-11-01T00:31:45.247Z,65.70
2022-11-01T00:34:46.815Z,65.80
2022-11-01T00:37:48.393Z,65.71
2022-11-01T00:40:49.943Z,65.72
2022-11-01T00:43:51.502Z,65.81
2022-11-01T00:46:53.121Z,65.80
2022-11-01T00:49:54.660Z,65.81
2022-11-01T00:52:56.188Z,65.83
2022-11-01T00:56:02.186Z,65.87
2022-11-01T00:59:04.050Z,65.75
2022-11-01T01:02:05.723Z,65.78
2022-11-01T01:05:08.683Z,65.74
2022-11-01T01:08:10.277Z,65.75
2022-11-01T01:11:11.835Z,65.84
2022-11-01T01:14:13.379Z,65.83
2022-11-01T01:17:15.226Z,65.84
2022-11-01T01:20:16.860Z,65.94
2022-11-01T01:23:18.471Z,66.01
2022-11-01T01:26:20.758Z,65.83
2022-11-01T01:29:22.363Z,65.82
2022-11-01T01:32:24.343Z,65.96
2022-11-01T01:35:25.866Z,65.95
2022-11-01T01:38:27.662Z,65.81
2022-11-01T01:41:47.498Z,65.96
2022-11-01T01:44:50.233Z,65.83
2022-11-01T01:47:54.420Z,65.96
2022-11-01T01:51:05.107Z,66.03
2022-11-01T01:54:06.719Z,65.99
2022-11-01T01:57:09.209Z,65.95
2022-11-01T02:00:11.600Z,66.05
2022-11-01T02:03:14.635Z,65.77
2022-11-01T02:06:18.788Z,65.93
2022-11-01T02:09:21.053Z,66.23
2022-11-01T02:12:30.311Z,66.05
2022-11-01T02:15:43.174Z,65.98
2022-11-01T02:19:07.323Z,65.92
2022-11-01T02:22:39.592Z,66.07
2022-11-01T02:25:56.194Z,65.99
2022-11-01T02:29:05.740Z,66.09
2022-11-01T02:32:21.752Z,66.18
2022-11-01T02:35:41.838Z,66.14
2022-11-01T02:38:57.629Z,65.95
2022-11-01T02:42:06.367Z,66.16
2022-11-01T02:45:28.955Z,66.09
2022-11-01T02:48:30.629Z,66.06
2022-11-01T02:51:33.398Z,66.03
2022-11-01T02:54:45.512Z,65.97
2022-11-01T02:57:47.845Z,65.96
2022-11-01T03:00:49.682Z,65.96
2022-11-01T03:03:53.812Z,66.10
2022-11-01T03:07:01.352Z,65.97
2022-11-01T03:10:03.204Z,65.92
2022-11-01T03:13:29.225Z,65.98
2022-11-01T03:16:51.034Z,66.02
2022-11-01T03:20:01.629Z,66.07
2022-11-01T03:23:05.684Z,65.98
2022-11-01T03:26:12.567Z,66.10
2022-11-01T03:29:16.370Z,66.11
2022-11-01T03:32:19.754Z,66.14
2022-11-01T03:35:39.653Z,66.17
2022-11-01T03:38:48.937Z,65.99
2022-11-01T03:41:56.788Z,65.84
2022-11-01T03:45:03.243Z,65.95
2022-11-01T03:48:05.997Z,66.10
2022-11-01T03:51:07.931Z,66.21
2022-11-01T03:54:11.200Z,66.02
2022-11-01T03:57:12.878Z,66.14
2022-11-01T04:00:17.090Z,66.10
2022-11-01T04:03:18.675Z,66.07
2022-11-01T04:06:20.216Z,65.92
2022-11-01T04:09:21.759Z,66.12
2022-11-01T04:12:23.412Z,66.20
2022-11-01T04:15:44.588Z,66.08
2022-11-01T04:19:04.799Z,66.00
2022-11-01T04:22:06.339Z,66.18
2022-11-01T04:25:08.135Z,66.20
2022-11-01T04:28:09.658Z,65.98
2022-11-01T04:31:12.021Z,66.17
2022-11-01T04:34:13.559Z,66.06
2022-11-01T04:37:15.092Z,66.13
2022-11-01T04:40:16.847Z,65.90
2022-11-01T04:43:18.410Z,65.92
2022-11-01T04:46:20.275Z,65.89
2022-11-01T04:49:21.881Z,65.85
2022-11-01T04:52:23.640Z,66.02
2022-11-01T04:55:25.976Z,66.17
2022-11-01T04:58:27.555Z,65.85
2022-11-01T05:01:29.255Z,65.82
2022-11-01T05:04:30.815Z,65.80
2022-11-01T05:07:32.379Z,66.03
2022-11-01T05:10:35.617Z,65.98
2022-11-01T05:13:37.112Z,65.96
2022-11-01T05:16:38.647Z,65.74
2022-11-01T05:19:40.264Z,66.08
2022-11-01T05:22:41.794Z,65.72
2022-11-01T05:25:43.667Z,65.96
2022-11-01T05:28:45.194Z,65.84
2022-11-01T05:31:47.123Z,65.80
2022-11-01T05:34:49.922Z,66.00
2022-11-01T05:37:51.608Z,65.80
2022-11-01T05:40:53.119Z,65.83
2022-11-01T05:43:54.657Z,65.73
2022-11-01T05:46:56.267Z,65.61
2022-11-01T05:49:57.783Z,65.94
2022-11-01T05:53:10.267Z,65.78
2022-11-01T05:56:12.103Z,65.62
2022-11-01T05:59:13.671Z,65.90
2022-11-01T06:02:15.262Z,65.66
2022-11-01T06:05:16.982Z,65.90
2022-11-01T06:08:19.935Z,65.49
2022-11-01T06:11:21.588Z,65.71
2022-11-01T06:14:23.291Z,65.53
2022-11-01T06:17:25.060Z,65.77
2022-11-01T06:20:31.672Z,65.76
2022-11-01T06:23:33.186Z,65.82
2022-11-01T06:26:34.762Z,65.58
2022-11-01T06:29:36.270Z,65.81
2022-11-01T06:32:37.888Z,65.86
2022-11-01T06:35:39.480Z,66.36
2022-11-01T06:38:41.028Z,66.29
2022-11-01T06:41:42.594Z,66.00
2022-11-01T06:44:44.093Z,65.67
2022-11-01T06:47:48.733Z,65.44
2022-11-01T06:50:50.562Z,65.71
2022-11-01T06:53:52.076Z,65.56
2022-11-01T06:56:53.566Z,65.68
2022-11-01T06:59:55.140Z,65.50
2022-11-01T07:03:02.288Z,65.57
2022-11-01T07:06:04.046Z,65.89
2022-11-01T07:09:05.705Z,65.76
2022-11-01T07:12:07.264Z,65.84
2022-11-01T07:15:09.071Z,65.76
2022-11-01T07:18:11.028Z,65.58
2022-11-01T07:21:12.679Z,65.54
2022-11-01T07:24:14.270Z,65.71
2022-11-01T07:27:20.243Z,65.67
2022-11-01T07:30:22.716Z,65.41
2022-11-01T07:33:24.355Z,65.57
2022-11-01T07:36:25.907Z,65.71
2022-11-01T07:39:27.436Z,65.28
2022-11-01T07:42:29.488Z,65.42
2022-11-01T07:45:33.530Z,65.74
2022-11-01T07:48:36.964Z,65.32
2022-11-01T07:51:38.714Z,65.35
2022-11-01T07:54:40.394Z,65.67
2022-11-01T07:57:41.987Z,65.55
2022-11-01T08:00:44.537Z,65.22
2022-11-01T08:03:46.270Z,65.54
2022-11-01T08:06:49.785Z,65.21
2022-11-01T08:09:53.678Z,65.33
2022-11-01T08:13:21.058Z,65.67
2022-11-01T08:16:22.584Z,65.17
2022-11-01T08:19:24.135Z,65.40
2022-11-01T08:22:25.722Z,65.18
2022-11-01T08:25:27.271Z,65.64
2022-11-01T08:28:30.436Z,65.39
2022-11-01T08:31:32.019Z,65.48
2022-11-01T08:34:33.742Z,65.24
2022-11-01T08:37:35.344Z,65.37
2022-11-01T08:40:36.862Z,65.35
2022-11-01T08:43:40.579Z,65.17
2022-11-01T08:46:43.709Z,65.15
2022-11-01T08:49:45.774Z,65.13
2022-11-01T08:52:47.334Z,65.16
2022-11-01T08:55:54.693Z,65.01
2022-11-01T08:58:56.724Z,64.96
2022-11-01T09:01:58.360Z,64.60
2022-11-01T09:05:02.818Z,64.86
2022-11-01T09:08:04.899Z,64.70
2022-11-01T09:11:06.862Z,64.64
2022-11-01T09:14:09.185Z,64.61
2022-11-01T09:17:10.750Z,64.44
2022-11-01T09:20:12.513Z,64.75
2022-11-01T09:23:14.035Z,64.35
2022-11-01T09:26:15.708Z,64.67
2022-11-01T09:29:18.992Z,64.44
2022-11-01T09:32:21.282Z,64.42
2022-11-01T09:35:22.880Z,64.24
2022-11-01T09:38:24.568Z,64.03
2022-11-01T09:41:47.241Z,64.03
2022-11-01T09:44:53.894Z,63.89
2022-11-01T09:47:57.738Z,63.56
2022-11-01T09:51:03.019Z,63.55
2022-11-01T09:54:04.720Z,63.62
2022-11-01T09:57:17.009Z,63.43
2022-11-01T10:00:20.766Z,63.02
2022-11-01T10:03:33.687Z,63.15
2022-11-01T10:06:42.042Z,62.92
2022-11-01T10:10:02.071Z,62.84
2022-11-01T10:13:25.695Z,62.64
2022-11-01T10:16:49.322Z,62.46
2022-11-01T10:19:51.003Z,62.46
2022-11-01T10:22:52.722Z,62.47
2022-11-01T10:25:54.926Z,62.16
2022-11-01T10:29:13.807Z,62.25
2022-11-01T10:32:38.186Z,62.23
2022-11-01T10:35:45.830Z,61.88
2022-11-01T10:42:17.399Z,62.05
2022-11-01T10:45:20.704Z,62.12
2022-11-01T10:48:44.033Z,61.90
2022-11-01T10:51:47.395Z,61.82
2022-11-01T10:54:50.508Z,61.73
2022-11-01T10:57:57.674Z,61.72
2022-11-01T11:01:02.735Z,61.40
2022-11-01T11:04:07.767Z,61.60
2022-11-01T11:07:16.498Z,61.41
2022-11-01T11:10:24.914Z,61.37
2022-11-01T11:13:27.547Z,61.27
2022-11-01T11:16:35.351Z,61.22
2022-11-01T11:19:39.820Z,61.12
2022-11-01T11:22:43.205Z,61.02
2022-11-01T11:25:45.701Z,60.99
2022-11-01T11:28:51.778Z,61.00
2022-11-01T11:31:59.231Z,61.03
2022-11-01T11:35:17.728Z,61.00
2022-11-01T11:38:39.079Z,60.66
2022-11-01T11:41:41.967Z,60.81
2022-11-01T11:44:50.486Z,60.74
2022-11-01T11:47:57.056Z,60.56
2022-11-01T11:51:06.334Z,60.56
2022-11-01T11:54:23.058Z,60.57
2022-11-01T11:57:27.216Z,60.57
2022-11-01T12:00:29.863Z,60.54
2022-11-01T12:03:44.468Z,60.58
2022-11-01T12:06:46.958Z,60.31
2022-11-01T12:09:48.815Z,60.52
2022-11-01T12:12:52.954Z,60.47
2022-11-01T12:16:06.374Z,60.38
2022-11-01T12:19:31.099Z,60.30
2022-11-01T12:22:35.067Z,60.29
2022-11-01T12:25:38.177Z,60.22
2022-11-01T12:28:44.917Z,60.17
2022-11-01T12:31:48.411Z,60.06
2022-11-01T12:34:52.739Z,60.00
2022-11-01T12:38:04.954Z,60.12
2022-11-01T12:41:29.751Z,60.13
2022-11-01T12:44:47.084Z,60.12
2022-11-01T12:47:54.647Z,59.88
2022-11-01T12:51:02.845Z,59.99
2022-11-01T12:54:16.453Z,60.15
2022-11-01T12:57:19.088Z,59.90
2022-11-01T13:00:21.868Z,59.86
2022-11-01T13:03:46.593Z,60.05
2022-11-01T13:07:12.765Z,59.93
2022-11-01T13:10:33.361Z,59.85
2022-11-01T13:14:02.348Z,59.77
2022-11-01T13:17:25.336Z,59.83
2022-11-01T13:20:32.630Z,59.54
2022-11-01T13:24:02.035Z,59.71
2022-11-01T13:27:15.449Z,59.56
2022-11-01T13:30:20.686Z,59.66
2022-11-01T13:33:37.410Z,59.82
2022-11-01T13:36:41.786Z,59.67
2022-11-01T13:39:51.583Z,59.60
2022-11-01T13:43:02.863Z,59.54
2022-11-01T13:46:21.031Z,59.43
2022-11-01T13:49:41.475Z,59.54
2022-11-01T13:52:51.270Z,59.40
2022-11-01T13:56:09.330Z,59.60
2022-11-01T13:59:15.656Z,59.50
2022-11-01T14:02:23.036Z,59.31
2022-11-01T14:05:39.182Z,59.43
2022-11-01T14:08:42.955Z,59.46
2022-11-01T14:11:49.311Z,59.32
2022-11-01T14:14:52.422Z,59.19
2022-11-01T14:17:57.271Z,59.17
2022-11-01T14:21:18.771Z,59.29
2022-11-01T14:24:30.594Z,59.06
2022-11-01T14:27:37.093Z,59.03
2022-11-01T14:30:42.334Z,59.28
2022-11-01T14:33:48.391Z,59.00
2022-11-01T14:36:54.107Z,59.30
2022-11-01T14:40:00.588Z,59.02
2022-11-01T14:43:25.208Z,59.33
2022-11-01T14:46:29.580Z,59.29
2022-11-01T14:49:41.507Z,59.08
2022-11-01T14:52:50.987Z,59.17
2022-11-01T14:56:05.677Z,59.02
2022-11-01T14:59:20.147Z,59.03
2022-11-01T15:02:23.767Z,58.89
2022-11-01T15:05:25.903Z,59.01
2022-11-01T15:08:41.565Z,58.98
2022-11-01T15:11:43.107Z,58.77
2022-11-01T15:14:46.556Z,58.90
2022-11-01T15:17:55.498Z,58.87
2022-11-01T15:20:59.243Z,58.79
2022-11-01T15:24:03.029Z,58.92
2022-11-01T15:27:14.213Z,58.83
2022-11-01T15:30:36.793Z,59.03
2022-11-01T15:33:38.783Z,58.74
2022-11-01T15:36:40.367Z,58.71
2022-11-01T15:39:41.922Z,58.90
2022-11-01T15:42:48.975Z,58.72
2022-11-01T15:45:56.618Z,58.69
2022-11-01T15:49:04.045Z,58.81
2022-11-01T15:52:15.652Z,58.82
2022-11-01T15:55:33.717Z,58.66
2022-11-01T16:02:11.543Z,58.48
2022-11-01T16:05:18.592Z,58.67
2022-11-01T16:08:42.898Z,58.53
2022-11-01T16:11:46.663Z,58.62
2022-11-01T16:14:58.749Z,58.41
2022-11-01T16:18:04.208Z,58.89
2022-11-01T16:21:30.100Z,58.73
2022-11-01T16:24:32.310Z,58.52
2022-11-01T16:27:35.987Z,58.86
2022-11-01T16:30:49.298Z,58.25
2022-11-01T16:33:51.546Z,58.49
2022-11-01T16:36:53.130Z,58.25
2022-11-01T16:39:54.822Z,58.47
2022-11-01T16:42:59.079Z,58.46
2022-11-01T16:46:01.451Z,58.60
2022-11-01T16:49:19.084Z,58.56
2022-11-01T16:52:21.908Z,58.45
2022-11-01T16:55:27.166Z,58.25
2022-11-01T16:58:30.998Z,58.21
2022-11-01T17:01:35.567Z,58.13
2022-11-01T17:04:40.022Z,58.49
2022-11-01T17:07:41.684Z,58.16
2022-11-01T17:10:43.287Z,58.14
2022-11-01T17:13:44.877Z,58.18
2022-11-01T17:16:48.100Z,58.03
2022-11-01T17:19:58.389Z,58.02
2022-11-01T17:23:00.051Z,58.38
2022-11-01T17:26:03.769Z,58.48
2022-11-01T17:29:05.308Z,58.29
2022-11-01T17:32:11.155Z,58.08
2022-11-01T17:35:13.034Z,58.11
2022-11-01T17:38:30.343Z,58.17
2022-11-01T17:41:32.148Z,58.08
2022-11-01T17:44:33.669Z,58.16
2022-11-01T17:47:35.212Z,57.97
2022-11-01T17:50:37.579Z,58.02
2022-11-01T17:53:40.493Z,58.04
2022-11-01T17:56:42.084Z,58.14
2022-11-01T17:59:43.674Z,58.14
2022-11-01T18:02:45.438Z,58.25
2022-11-01T18:05:47.040Z,57.87
2022-11-01T18:08:51.143Z,57.94
2022-11-01T18:12:04.628Z,57.71
2022-11-01T18:15:09.248Z,58.00
2022-11-01T18:18:22.999Z,57.85
2022-11-01T18:21:43.320Z,58.06
2022-11-01T18:25:11.106Z,57.96
2022-11-01T18:28:17.085Z,57.74
2022-11-01T18:31:44.868Z,57.58
2022-11-01T18:38:53.362Z,57.93
2022-11-01T18:41:55.131Z,57.67
2022-11-01T18:44:59.763Z,57.69
2022-11-01T18:48:08.333Z,57.71
2022-11-01T18:51:28.410Z,57.88
2022-11-01T18:54:32.583Z,57.61
2022-11-01T18:57:35.063Z,57.46
2022-11-01T19:00:37.814Z,57.70
2022-11-01T19:03:40.304Z,57.53
2022-11-01T19:06:41.834Z,57.78
2022-11-01T19:09:55.397Z,57.65
2022-11-01T19:12:57.081Z,57.33
2022-11-01T19:16:01.993Z,57.39
2022-11-01T19:19:18.237Z,57.67
2022-11-01T19:22:33.457Z,57.73
2022-11-01T19:25:36.689Z,57.47
2022-11-01T19:28:40.471Z,57.32
2022-11-01T19:31:45.073Z,57.51
2022-11-01T19:34:48.699Z,57.40
2022-11-01T19:37:55.338Z,57.65
2022-11-01T19:40:58.523Z,57.44
2022-11-01T19:44:05.219Z,57.26
2022-11-01T19:47:21.995Z,57.14
2022-11-01T19:50:44.628Z,57.58
2022-11-01T19:53:46.490Z,57.30
2022-11-01T19:56:48.031Z,57.44
2022-11-01T19:59:49.682Z,57.34
2022-11-01T20:02:57.471Z,57.25
2022-11-01T20:05:59.033Z,57.46
2022-11-01T20:09:26.698Z,57.20
2022-11-01T20:12:28.255Z,57.46
2022-11-01T20:15:29.981Z,57.01
2022-11-01T20:18:31.552Z,57.35
2022-11-01T20:21:33.387Z,56.95
2022-11-01T20:24:34.893Z,57.34
2022-11-01T20:27:36.451Z,57.12
2022-11-01T20:30:37.999Z,57.02
2022-11-01T20:33:39.630Z,57.14
2022-11-01T20:36:41.279Z,56.84
2022-11-01T20:39:42.859Z,57.00
2022-11-01T20:42:44.484Z,56.81
2022-11-01T20:45:46.065Z,56.90
2022-11-01T20:48:48.289Z,56.76
2022-11-01T20:51:49.826Z,57.07
2022-11-01T20:54:51.937Z,57.02
2022-11-01T20:57:53.702Z,56.68
2022-11-01T21:00:55.994Z,57.14
2022-11-01T21:03:57.858Z,56.83
2022-11-01T21:06:59.404Z,56.73
2022-11-01T21:10:01.012Z,56.78
2022-11-01T21:13:07.432Z,56.68
2022-11-01T21:16:20.763Z,56.87
2022-11-01T21:19:25.587Z,56.50
2022-11-01T21:22:27.440Z,56.44
2022-11-01T21:25:29.159Z,56.68
2022-11-01T21:28:34.237Z,56.78
2022-11-01T21:31:39.087Z,56.50
2022-11-01T21:34:43.171Z,56.77
2022-11-01T21:37:44.695Z,56.47
2022-11-01T21:40:46.262Z,56.72
2022-11-01T21:43:47.782Z,56.72
2022-11-01T21:46:54.151Z,56.31
2022-11-01T21:49:56.127Z,56.57
2022-11-01T21:52:57.779Z,56.23
2022-11-01T21:55:59.336Z,56.69
2022-11-01T21:59:00.866Z,56.33
2022-11-01T22:02:03.590Z,56.65
2022-11-01T22:05:05.568Z,56.67
2022-11-01T22:08:07.117Z,56.16
2022-11-01T22:11:08.640Z,56.43
2022-11-01T22:14:11.250Z,56.16
2022-11-01T22:17:12.763Z,56.35
2022-11-01T22:20:14.945Z,56.62
2022-11-01T22:23:16.523Z,56.58
2022-11-01T22:26:18.247Z,56.38
2022-11-01T22:29:19.800Z,56.29
2022-11-01T22:32:21.371Z,56.27
2022-11-01T22:35:22.917Z,56.41
2022-11-01T22:38:29.079Z,56.33
2022-11-01T22:41:35.092Z,56.42
2022-11-01T22:44:37.825Z,56.15
2022-11-01T22:47:39.532Z,56.39
2022-11-01T22:50:41.085Z,56.42
2022-11-01T22:53:42.688Z,56.26
2022-11-01T22:56:44.686Z,56.35
2022-11-01T22:59:51.239Z,56.30
2022-11-01T23:02:59.765Z,56.42
2022-11-01T23:06:15.467Z,56.27
2022-11-01T23:09:19.906Z,56.47
2022-11-01T23:12:42.832Z,56.08
2022-11-01T23:15:44.824Z,56.48
2022-11-01T23:18:46.392Z,56.25
2022-11-01T23:21:48.326Z,56.12
2022-11-01T23:24:52.026Z,56.41
2022-11-01T23:27:54.296Z,56.35
2022-11-01T23:30:57.282Z,56.26
2022-11-01T23:33:58.807Z,56.22
2022-11-01T23:37:00.462Z,56.47
2022-11-01T23:40:02.390Z,56.29
2022-11-01T23:43:24.184Z,56.35
2022-11-01T23:46:26.694Z,56.16
2022-11-01T23:49:31.802Z,56.52
2022-11-01T23:52:40.302Z,56.22
2022-11-01T23:55:48.536Z,56.24
2022-11-01T23:58:55.891Z,56.30
